Latest Weather Observations for Tarcoola

IDS60801

Issued at 1:51 pm CST Thursday 28 May 2020 (issued every 10 minutes, with the page automatically refreshed every 10 minutes)

About weather observations | Map of weather stations | Latest weather observations for SA | Other Formats
Station Details ID: 016098 Name: TARCOOLA AERO Lat: -30.71 Lon: 134.58 Height: 123.0 m
Data from the previous 72 hours. | See also: Recent months at Tarcoola
Date/Time
CST
Temp
°C
App
Temp
°C
Dew
Point
°C
Rel
Hum
%
Delta-T
°C
Wind Press
QNH
hPa
Press
MSL
hPa
Rain since
9am
mm
Dir  Spd
km/h
Gust
km/h
Spd
kts
Gust
kts
28/01:30pm 20.0 16.9 3.7 34 7.8 NW 9 19 5 10 1023.9 1023.8 0.0
28/01:00pm 19.6 17.0 3.3 34 7.7 NNW 6 11 3 6 1024.3 1024.2 0.0
28/12:30pm 18.8 15.7 3.8 37 7.1 N 9 19 5 10 1024.6 1024.5 0.0
28/12:00pm 18.6 15.9 5.8 43 6.3 NE 9 15 5 8 1025.1 1025.0 0.0
28/11:30am 18.1 15.5 6.3 46 5.8 ENE 9 13 5 7 1025.7 1025.6 0.0
28/11:00am 17.6 15.0 7.9 53 5.0 ENE 11 15 6 8 1026.0 1025.9 0.0
28/10:30am 16.5 14.0 8.0 57 4.3 NE 11 13 6 7 1026.2 1026.1 0.0
28/10:00am 15.2 13.0 8.0 62 3.6 ENE 9 11 5 6 1026.1 1026.0 0.0
28/09:30am 12.5 10.4 6.8 68 2.7 ENE 7 9 4 5 1026.1 1026.0 0.0
28/09:00am 9.7 8.6 4.9 72 2.2 CALM 0 0 0 0 1025.9 1025.8 0.0
28/08:30am 7.1 5.6 2.8 74 1.8 CALM 0 0 0 0 1025.6 1025.5 0.0
28/08:00am 4.6 2.8 1.3 79 1.3 CALM 0 0 0 0 1025.4 1025.3 0.0
28/07:30am 2.4 -0.7 0.0 84 0.9 SSW 6 7 3 4 1025.1 1025.0 0.0
28/07:00am 2.9 -0.4 0.3 83 1.0 SSW 7 7 4 4 1024.7 1024.6 0.0
28/06:30am 3.5 0.4 1.5 87 0.8 SW 7 9 4 5 1024.4 1024.3 0.0
28/06:00am 3.2 0.0 0.6 83 1.0 SW 7 7 4 4 1024.1 1024.0 0.0
28/05:30am 3.1 -0.3 -0.4 78 1.3 WSW 7 9 4 5 1023.7 1023.6 0.0
28/05:00am 3.7 0.7 0.6 80 1.2 SW 6 7 3 4 1023.6 1023.5 0.0
28/04:30am 3.6 0.0 0.3 79 1.2 SW 9 11 5 6 1023.6 1023.5 0.0
28/04:00am 3.3 1.1 -1.6 70 1.8 CALM 0 0 0 0 1023.5 1023.4 0.0
28/03:30am 3.8 0.3 -1.0 71 1.8 WSW 7 7 4 4 1023.4 1023.3 0.0
28/03:00am 4.0 0.7 -1.4 68 2.0 WSW 6 7 3 4 1023.2 1023.1 0.0
28/02:30am 4.4 2.2 -1.4 66 2.1 CALM 0 0 0 0 1023.1 1023.0 0.0
28/02:00am 5.1 2.1 0.9 74 1.6 WSW 6 9 3 5 1023.1 1023.0 0.0
28/01:30am 4.8 1.0 -1.0 66 2.1 WSW 9 11 5 6 1023.1 1023.0 0.0
28/01:00am 5.7 2.9 -0.1 66 2.2 WSW 4 6 2 3 1023.0 1022.9 0.0
28/12:30am 5.9 2.9 0.5 68 2.1 WSW 6 7 3 4 1023.0 1022.9 0.0
28/12:00am 6.3 3.3 0.6 67 2.2 WSW 6 7 3 4 1023.1 1023.0 0.0
 
Date/Time
CST
Temp
°C
App
Temp
°C
Dew
Point
°C
Rel
Hum
%
Delta-T
°C
Wind Press
QNH
hPa
Press
MSL
hPa
Rain since
9am
mm
Dir  Spd
km/h
Gust
km/h
Spd
kts
Gust
kts
27/11:30pm 6.6 3.4 0.9 67 2.3 SW 7 9 4 5 1023.2 1023.1 0.0
27/11:00pm 6.6 2.9 0.1 63 2.5 WSW 9 11 5 6 1023.2 1023.1 0.0
27/10:30pm 6.9 3.6 0.1 62 2.7 SSW 7 7 4 4 1023.1 1023.0 0.0
27/10:00pm 7.7 4.6 0.2 59 3.0 NE 6 7 3 4 1022.9 1022.8 0.0
27/09:30pm 8.3 5.3 0.8 59 3.0 NE 6 6 3 3 1022.6 1022.5 0.0
27/09:00pm 8.9 6.0 1.3 59 3.1 NE 6 7 3 4 1022.4 1022.3 0.0
27/08:30pm 9.6 6.6 1.8 58 3.3 NE 7 9 4 5 1022.1 1022.0 0.0
27/08:00pm 10.6 9.0 2.2 56 3.6 CALM 0 0 0 0 1021.9 1021.8 0.0
27/07:30pm 11.3 9.6 1.8 52 4.0 CALM 0 2 0 1 1021.7 1021.6 0.0
27/07:00pm 13.0 10.4 3.4 52 4.3 W 6 7 3 4 1021.5 1021.4 0.0
27/06:30pm 14.1 11.5 3.0 47 5.0 WSW 6 7 3 4 1021.2 1021.1 0.0
27/06:00pm 15.8 12.3 3.6 44 5.6 WSW 11 11 6 6 1020.6 1020.4 0.0
27/05:30pm 17.9 14.5 3.8 39 6.6 WSW 11 17 6 9 1020.5 1020.3 0.0
27/05:00pm 18.9 15.5 3.9 37 7.1 WSW 11 15 6 8 1020.2 1020.1 0.0
27/04:30pm 19.4 15.1 3.2 34 7.6 WSW 15 20 8 11 1020.1 1020.0 0.0
27/04:00pm 19.4 15.1 3.2 34 7.6 WSW 15 20 8 11 1020.0 1019.9 0.0
27/03:30pm 19.8 15.4 2.6 32 8.0 WSW 15 20 8 11 1019.9 1019.8 0.0
27/03:00pm 19.0 14.8 3.6 36 7.3 WSW 15 24 8 13 1019.9 1019.8 0.0
27/02:30pm 19.7 15.2 4.2 36 7.4 WSW 17 22 9 12 1020.0 1019.9 0.0
27/02:00pm 19.4 14.8 3.6 35 7.5 W 17 24 9 13 1020.5 1020.3 0.0
27/01:30pm 18.8 14.2 3.8 37 7.1 WNW 17 26 9 14 1020.9 1020.8 0.0
27/01:00pm 18.4 14.3 4.6 40 6.6 W 15 20 8 11 1021.2 1021.1 0.0
27/12:30pm 18.1 14.7 5.7 44 6.1 WNW 13 20 7 11 1021.6 1021.5 0.0
27/12:00pm 17.4 13.6 6.0 47 5.6 W 15 26 8 14 1022.1 1022.0 0.0
27/11:30am 16.5 12.5 6.6 52 4.9 W 17 20 9 11 1022.5 1022.4 0.0
27/11:00am 15.6 12.1 7.4 58 4.1 WSW 15 20 8 11 1023.1 1023.0 0.0
27/10:30am 14.8 11.4 7.8 63 3.5 WSW 15 19 8 10 1023.3 1023.2 0.0
27/10:00am 13.4 11.0 8.7 73 2.4 WSW 11 15 6 8 1023.2 1023.1 0.0
27/09:30am 11.5 10.9 9.1 85 1.2 W 2 6 1 3 1023.0 1022.9 0.0
27/09:00am 9.9 9.6 8.5 91 0.7 CALM 0 0 0 0 1022.9 1022.8 0.2
27/08:30am 8.4 7.8 7.3 93 0.5 CALM 0 0 0 0 1022.9 1022.8 0.2
27/08:00am 6.8 5.8 5.7 93 0.5 CALM 0 0 0 0 1022.6 1022.5 0.2
27/07:30am 5.8 4.6 4.6 92 0.5 CALM 0 0 0 0 1022.3 1022.2 0.2
27/07:00am 6.5 5.4 5.3 92 0.5 CALM 0 0 0 0 1021.9 1021.8 0.2
27/06:30am 6.7 5.7 5.5 92 0.5 CALM 0 0 0 0 1021.5 1021.4 0.0
27/06:00am 7.2 6.3 6.0 92 0.5 CALM 0 0 0 0 1021.2 1021.1 0.0
27/05:30am 7.2 6.3 6.0 92 0.5 CALM 0 0 0 0 1021.0 1020.9 0.0
27/05:00am 6.5 5.4 5.3 92 0.5 CALM 0 0 0 0 1020.7 1020.5 0.0
27/04:30am 6.8 5.8 5.4 91 0.6 CALM 0 0 0 0 1020.5 1020.3 0.0
27/04:00am 7.9 6.3 6.5 91 0.6 SW 4 6 2 3 1020.2 1020.1 0.0
27/03:30am 8.4 6.5 6.9 90 0.7 SW 6 7 3 4 1020.0 1019.9 0.0
27/03:00am 9.7 7.6 8.3 91 0.7 SSW 9 11 5 6 1020.0 1019.9 0.0
27/02:30am 10.5 8.7 9.3 92 0.6 WSW 9 13 5 7 1019.8 1019.7 0.0
27/02:00am 9.6 7.8 7.9 89 0.8 WNW 7 11 4 6 1019.8 1019.7 0.0
27/01:30am 9.9 8.4 8.5 91 0.7 NNW 6 7 3 4 1019.7 1019.6 0.0
27/01:00am 10.0 9.6 8.4 90 0.8 CALM 0 6 0 3 1019.5 1019.4 0.0
27/12:30am 9.8 8.2 7.9 88 0.9 NNE 6 7 3 4 1019.6 1019.5 0.0
27/12:00am 10.3 9.6 8.6 89 0.8 N 2 7 1 4 1019.7 1019.6 0.0
 
Date/Time
CST
Temp
°C
App
Temp
°C
Dew
Point
°C
Rel
Hum
%
Delta-T
°C
Wind Press
QNH
hPa
Press
MSL
hPa
Rain since
9am
mm
Dir  Spd
km/h
Gust
km/h
Spd
kts
Gust
kts
26/11:30pm 10.6 9.2 8.7 88 0.9 NNE 6 7 3 4 1019.6 1019.5 0.0
26/11:00pm 10.8 9.7 8.6 86 1.1 NE 4 6 2 3 1019.6 1019.5 0.0
26/10:30pm 12.0 10.6 9.7 86 1.2 NE 7 9 4 5 1019.4 1019.3 0.0
26/10:00pm 12.2 10.9 9.9 86 1.2 NE 7 9 4 5 1019.4 1019.3 0.0
26/09:30pm 12.4 11.1 10.1 86 1.2 NNE 7 7 4 4 1019.6 1019.5 0.0
26/09:00pm 12.5 10.8 9.9 84 1.3 N 9 11 5 6 1019.4 1019.3 0.0
26/08:30pm 13.2 11.9 10.0 81 1.7 NNE 7 9 4 5 1019.3 1019.2 0.0
26/08:00pm 14.1 13.1 10.3 78 2.0 NNW 6 7 3 4 1019.1 1019.0 0.0
26/07:30pm 14.6 13.7 10.8 78 2.0 NNE 6 7 3 4 1018.7 1018.6 0.0
26/07:00pm 15.0 13.9 10.8 76 2.2 NNE 7 9 4 5 1018.3 1018.2 0.0
26/06:30pm 15.5 13.9 10.3 71 2.7 NNW 9 11 5 6 1018.0 1017.9 0.0
26/06:00pm 16.0 13.8 9.4 65 3.4 NNW 11 15 6 8 1017.6 1017.5 0.0
26/05:30pm 16.5 13.1 9.0 61 3.9 NW 17 22 9 12 1017.2 1017.1 0.0
26/05:00pm 16.6 12.7 8.8 60 4.0 NW 19 24 10 13 1016.9 1016.8 0.0
26/04:30pm 17.7 13.4 7.7 52 5.1 NW 20 26 11 14 1016.6 1016.5 0.0
26/04:00pm 18.8 14.0 4.9 40 6.7 WNW 19 32 10 17 1016.5 1016.4 0.0
26/03:30pm 19.7 14.6 3.0 33 7.8 NW 19 28 10 15 1016.3 1016.2 0.0
26/03:00pm 19.7 14.0 2.6 32 8.0 WNW 22 30 12 16 1016.2 1016.1 0.0
26/02:30pm 19.4 13.4 3.6 35 7.5 NW 24 32 13 17 1016.2 1016.1 0.0
26/02:00pm 19.6 14.1 2.0 31 8.1 NNW 20 26 11 14 1016.3 1016.2 0.0
26/01:30pm 19.3 13.0 1.8 31 8.0 NNW 24 32 13 17 1016.5 1016.4 0.0
26/01:00pm 18.9 12.7 1.9 32 7.8 N 24 35 13 19 1016.7 1016.6 0.0
26/12:30pm 19.3 12.7 1.8 31 8.0 N 26 39 14 21 1017.0 1016.9 0.0
26/12:00pm 18.7 11.6 1.2 31 7.9 N 28 37 15 20 1017.6 1017.5 0.0
26/11:30am 18.3 10.8 1.3 32 7.6 N 30 39 16 21 1018.2 1018.1 0.0
26/11:00am 17.1 9.2 1.1 34 7.1 N 32 43 17 23 1018.8 1018.7 0.0
26/10:30am 16.3 8.4 1.2 36 6.6 N 32 41 17 22 1019.1 1019.0 0.0
26/10:00am 14.6 7.1 1.2 40 5.8 NNE 30 41 16 22 1019.3 1019.2 0.0
26/09:30am 13.4 6.3 1.4 44 5.2 NNE 28 37 15 20 1019.4 1019.3 0.0
26/09:00am 12.9 6.2 1.6 46 4.9 NNE 26 35 14 19 1019.3 1019.2 0.0
26/08:30am 12.5 5.8 1.5 47 4.7 NNE 26 37 14 20 1019.3 1019.2 0.0
26/08:00am 12.2 6.3 1.8 49 4.5 NNE 22 30 12 16 1019.4 1019.3 0.0
26/07:30am 11.9 6.0 1.8 50 4.3 NE 22 28 12 15 1019.2 1019.1 0.0
26/07:00am 11.6 6.1 1.8 51 4.2 NE 20 30 11 16 1019.2 1019.1 0.0
26/06:30am 12.1 6.2 2.0 50 4.4 NE 22 32 12 17 1018.8 1018.7 0.0
26/06:00am 12.2 6.4 2.1 50 4.4 NE 22 28 12 15 1019.0 1018.9 0.0
26/05:30am 12.2 6.4 2.4 51 4.3 NE 22 26 12 14 1018.7 1018.6 0.0
26/05:00am 12.3 6.5 2.2 50 4.4 NE 22 28 12 15 1018.8 1018.7 0.0
26/04:30am 12.8 7.4 2.4 49 4.6 NNE 20 32 11 17 1018.6 1018.5 0.0
26/04:00am 12.9 7.1 2.5 49 4.6 NNE 22 30 12 16 1018.2 1018.1 0.0
26/03:30am 12.7 7.5 2.6 50 4.4 NE 19 22 10 12 1018.6 1018.5 0.0
26/03:00am 13.1 8.6 2.4 48 4.7 NE 15 19 8 10 1018.8 1018.7 0.0
26/02:30am 13.8 9.0 2.4 46 5.0 NE 17 22 9 12 1018.8 1018.7 0.0
26/02:00am 14.2 8.0 2.1 44 5.3 NE 24 32 13 17 1017.5 1017.4 0.0
26/01:30am 14.5 9.0 2.1 43 5.5 NNE 20 28 11 15 1018.7 1018.6 0.0
26/01:00am 14.3 8.9 2.2 44 5.4 NE 20 24 11 13 1018.0 1017.9 0.0
26/12:30am 14.5 9.0 2.1 43 5.5 NE 20 26 11 14 1018.4 1018.3 0.0
26/12:00am 14.8 8.6 2.0 42 5.7 NNE 24 35 13 19 1018.2 1018.1 0.0
 
Date/Time
CST
Temp
°C
App
Temp
°C
Dew
Point
°C
Rel
Hum
%
Delta-T
°C
Wind Press
QNH
hPa
Press
MSL
hPa
Rain since
9am
mm
Dir  Spd
km/h
Gust
km/h
Spd
kts
Gust
kts
25/11:30pm 15.0 8.8 1.9 41 5.8 NE 24 32 13 17 1018.1 1018.0 0.0
25/11:00pm 15.1 9.8 1.6 40 5.9 NNE 19 28 10 15 1018.7 1018.6 0.0
25/10:30pm 15.2 9.3 1.4 39 6.0 NNE 22 32 12 17 1018.2 1018.1 0.0
25/10:00pm 15.3 9.0 1.4 39 6.1 NE 24 33 13 18 1018.9 1018.8 0.0
25/09:30pm 15.4 9.4 1.2 38 6.2 NE 22 28 12 15 1019.2 1019.1 0.0
25/09:00pm 15.6 10.0 1.4 38 6.2 NNE 20 28 11 15 1020.0 1019.9 0.0
25/08:30pm 15.5 10.1 1.3 38 6.2 NE 19 24 10 13 1019.6 1019.5 0.0
25/08:00pm 15.3 10.4 1.8 40 6.0 NE 17 22 9 12 1019.5 1019.4 0.0
25/07:30pm 15.3 11.4 1.4 39 6.1 NNE 11 13 6 7 1020.6 1020.4 0.0
25/07:00pm 15.8 11.6 1.5 38 6.3 NNE 13 17 7 9 1019.7 1019.6 0.0
25/06:30pm 15.7 11.5 1.8 39 6.2 N 13 15 7 8 1020.3 1020.2 0.0
25/06:00pm 16.2 12.3 1.1 36 6.6 NNE 11 13 6 7 1020.3 1020.2 0.0
25/05:30pm 16.8 12.5 0.9 34 7.0 N 13 17 7 9 1020.0 1019.9 0.0
25/05:00pm 17.4 12.0 1.0 33 7.3 NNE 19 24 10 13 1019.2 1019.1 0.0
25/04:30pm 17.6 12.2 1.2 33 7.3 NNE 19 26 10 14 1019.6 1019.5 0.0
25/04:00pm 17.8 12.4 1.3 33 7.4 N 19 24 10 13 1020.0 1019.9 0.0
25/03:30pm 17.9 12.5 1.4 33 7.4 NNE 19 26 10 14 1019.9 1019.8 0.0
25/03:00pm 17.7 12.4 2.1 35 7.1 NNE 19 28 10 15 1020.0 1019.9 0.0
25/02:30pm 17.6 12.2 2.4 36 6.9 NNE 20 30 11 16 1020.7 1020.5 0.0
25/02:00pm 17.7 12.3 2.5 36 7.0 NE 20 32 11 17 1021.0 1020.9 0.0

Other formats

Comma delimited format used in spreadsheet applications
http://www.bom.gov.au/fwo/IDS60801/IDS60801.94655.axf

JavaScript Object Notation format (JSON) in row-major order
http://www.bom.gov.au/fwo/IDS60801/IDS60801.94655.json

Data quality

Most of these data are generated automatically and are frequently updated. Quality checks on data are not normally performed. It is possible for incorrect values to appear. Refer to information at About Latest Weather Observations and please check the disclaimer before using these data.